Dupont, CO

2:29 AM MDT on August 22, 2014 (GMT -0600)
Derby | Change Station
CLOSE
Current Station
Personal Weather Station
Location: Commerce City, CO
Elevation: 5138 ft
Nearby Weather Stations

Elev 5138 ft 39.84 °N, 104.92 °W | Updated 4 minutes ago

Overcast
Overcast
66.7 °F
Feels Like 66.7 °F
N
0.0
Wind Variable Wind from ENE
Gusts 6.0 mph

Today
High -- | Low -- °F
--% Chance of Precip.
Yesterday
High -- | Low -- °F
Precip. -- in
6:18 AM 7:46 PM
Waning Crescent, 9% visible
Pressure 30.17 in
Visibility 10.0 miles
Clouds Scattered Clouds 7500 ft
Overcast 9000 ft
Dew Point 54 °F
Humidity 63%
Rainfall 0.00 in
Snow Depth Not available.
UV 0 out of 12
Pollen 9.70 out of 12
Ozone Good
PM2.5 Good
Flu Activity Not available.
METAR KBJC 220814Z AUTO 14005KT 10SM SCT075 OVC090 18/12 A3017 RMK AO2 LTG DSNT W

More Conditions Fewer Conditions

Pressure 30.17 in
Visibility 10.0 miles
Clouds Scattered Clouds 7500 ft
Overcast 9000 ft
Dew Point 54 °F
Humidity 63%
Rainfall 0.00 in
Snow Depth Not available.
UV 0 out of 12
Pollen 9.70 out of 12
Ozone Good
PM2.5 Good
Flu Activity Not available.
METAR KBJC 220814Z AUTO 14005KT 10SM SCT075 OVC090 18/12 A3017 RMK AO2 LTG DSNT W

More Conditions Fewer Conditions

Nowcast | as of 12:58 am MDT on August 22, 2014

Scattered showers and a few thunderstorms will continue along southern areas of the Front Range until 3 am. Brief moderate rain and gusty winds to 35 mph will be possible. Elsewhere...light showers will move across the southern foothills. Rainfall amounts with these showers will be less than one tenth of an inch.

×

10-Day Weather Forecast

Almanac

Astronomy

Aug. 22, 2014 Rise Set
Actual Time 6:18 AM MDT 7:46 PM MDT
Civil Twilight 5:49 AM MDT 8:14 PM MDT
Nautical Twilight 5:15 AM MDT 8:48 PM MDT
Astronomical Twilight 4:39 AM MDT 9:24 PM MDT
Moon 3:43 AM MDT 5:56 PM MDT
Length of Visible Light 14h 24m
Length of Day
13h 27m
Tomorrow will be 2m 25s shorter.
Waning Crescent, 9% of the Moon is Illuminated
Today
Waning Crescent
Aug 25
New
Sep 2
First Quarter
Sep 8
Full
Sep 15
Last Quarter

Today's Extremes

State Highs State Lows

Community

WunderPhotos

Upload Photos

1,746,144 photos uploaded!

Nearby

Air Quality

  Air Quality AQ Index Pollutant
Yesterday Moderate
OZONE
Yesterday Good
PM10
Current Good
OZONE
Current Good
PM2.5
Friday Good
OZONE
Friday Good
PM2.5

Snow Depth

Station Depth Elevation
Niwot 0 in 9910 ft
University Camp 0 in 10300 ft
Echo Lake 0 in 10600 ft
Copeland Lake 0 in 8600 ft
Wild Basin 0 in 9560 ft

Earthquake Activity

City Distance Mag. Time & Date
No recent earthquake activity has been reported nearby.
Minimum magnitude displayed is 2.5.

Coastal Water Temperatures

Place Temperature
No Stations Reporting

Nearby Weather Stations